createdAt,value
2023-04-14T00:00:13.002Z,71.64
2023-04-14T00:01:12.987Z,71.64
2023-04-14T00:02:13.153Z,71.80
2023-04-14T00:03:13.295Z,72.17
2023-04-14T00:04:13.182Z,71.98
2023-04-14T00:05:12.957Z,72.36
2023-04-14T00:06:12.899Z,72.17
2023-04-14T00:07:12.883Z,72.27
2023-04-14T00:08:12.878Z,72.17
2023-04-14T00:09:12.852Z,72.27
2023-04-14T00:10:12.833Z,72.08
2023-04-14T00:11:12.828Z,72.45
2023-04-14T00:12:12.804Z,72.17
2023-04-14T00:13:12.791Z,72.17
2023-04-14T00:14:12.766Z,71.98
2023-04-14T00:15:12.764Z,71.64
2023-04-14T00:16:12.757Z,72.11
2023-04-14T00:17:12.783Z,71.73
2023-04-14T00:18:12.706Z,71.64
2023-04-14T00:19:12.686Z,71.17
2023-04-14T00:20:12.682Z,71.26
2023-04-14T00:21:12.649Z,71.26
2023-04-14T00:22:12.628Z,71.55
2023-04-14T00:23:12.612Z,71.17
2023-04-14T00:24:12.610Z,71.17
2023-04-14T00:25:12.597Z,71.07
2023-04-14T00:26:12.560Z,70.98
2023-04-14T00:27:12.546Z,70.88
2023-04-14T00:28:12.530Z,70.88
2023-04-14T00:29:12.515Z,70.88
2023-04-14T00:30:12.492Z,71.17
2023-04-14T00:31:12.502Z,71.26
2023-04-14T00:32:12.457Z,71.17
2023-04-14T00:33:12.463Z,71.17
2023-04-14T00:34:12.430Z,71.26
2023-04-14T00:35:12.418Z,71.17
2023-04-14T00:36:12.395Z,71.36
2023-04-14T00:37:12.376Z,71.26
2023-04-14T00:38:12.355Z,71.26
2023-04-14T00:39:12.344Z,71.26
2023-04-14T00:40:12.348Z,71.17
2023-04-14T00:41:12.305Z,70.88
2023-04-14T00:42:12.291Z,71.07
2023-04-14T00:43:12.269Z,71.17
2023-04-14T00:44:12.254Z,71.07
2023-04-14T00:45:12.236Z,71.07
2023-04-14T00:46:12.249Z,71.45
2023-04-14T00:47:12.220Z,71.07
2023-04-14T00:48:12.184Z,71.17
2023-04-14T00:49:12.175Z,71.45
2023-04-14T00:50:12.155Z,71.17
2023-04-14T00:51:12.144Z,70.84
2023-04-14T00:52:12.114Z,71.22
2023-04-14T00:53:12.102Z,71.32
2023-04-14T00:54:12.079Z,71.60
2023-04-14T00:55:12.064Z,71.51
2023-04-14T00:56:12.047Z,71.51
2023-04-14T00:57:12.034Z,71.60
2023-04-14T00:58:12.015Z,72.08
2023-04-14T00:59:11.995Z,71.98
2023-04-14T01:00:11.982Z,72.08
2023-04-14T01:01:12.107Z,72.27
2023-04-14T01:02:12.009Z,73.03
2023-04-14T01:03:12.056Z,72.45
2023-04-14T01:04:11.935Z,72.89
2023-04-14T01:05:12.017Z,72.89
2023-04-14T01:06:11.899Z,73.08
2023-04-14T01:07:11.855Z,73.37
2023-04-14T01:08:11.847Z,73.37
2023-04-14T01:09:11.820Z,73.37
2023-04-14T01:10:11.801Z,73.27
2023-04-14T01:11:11.796Z,73.75
2023-04-14T01:12:11.779Z,73.27
2023-04-14T01:13:11.756Z,73.65
2023-04-14T01:14:11.732Z,73.43
2023-04-14T01:15:11.724Z,73.33
2023-04-14T01:16:11.736Z,73.99
2023-04-14T01:17:11.682Z,73.99
2023-04-14T01:18:11.667Z,73.61
2023-04-14T01:19:11.654Z,73.24
2023-04-14T01:20:11.643Z,73.33
2023-04-14T01:21:11.610Z,73.43
2023-04-14T01:22:11.598Z,73.24
2023-04-14T01:23:11.580Z,73.71
2023-04-14T01:24:11.562Z,73.61
2023-04-14T01:25:11.551Z,73.99
2023-04-14T01:26:11.524Z,73.90
2023-04-14T01:27:11.508Z,73.90
2023-04-14T01:28:11.491Z,73.99
2023-04-14T01:29:11.475Z,73.90
2023-04-14T01:30:11.456Z,73.80
2023-04-14T01:31:11.470Z,73.80
2023-04-14T01:32:11.428Z,73.80
2023-04-14T01:33:11.401Z,73.80
2023-04-14T01:34:11.381Z,73.77
2023-04-14T01:35:11.411Z,73.49
2023-04-14T01:36:11.344Z,73.77
2023-04-14T01:37:11.332Z,73.77
2023-04-14T01:38:11.315Z,73.77
2023-04-14T01:39:11.302Z,73.68
2023-04-14T01:40:11.325Z,73.77
2023-04-14T01:41:11.269Z,73.68
2023-04-14T01:42:11.250Z,73.68
2023-04-14T01:43:11.221Z,73.77
2023-04-14T01:44:11.223Z,73.96
2023-04-14T01:45:11.186Z,73.86
2023-04-14T01:46:11.268Z,73.77
2023-04-14T01:47:11.156Z,73.86
2023-04-14T01:48:11.271Z,73.58
2023-04-14T01:49:11.157Z,73.92
2023-04-14T01:50:11.106Z,73.64
2023-04-14T01:51:11.080Z,73.64
2023-04-14T01:52:11.072Z,74.11
2023-04-14T01:53:11.045Z,74.02
2023-04-14T01:54:11.022Z,74.02
2023-04-14T01:55:11.014Z,74.49
2023-04-14T01:56:10.988Z,74.49
2023-04-14T01:57:10.965Z,74.58
2023-04-14T01:58:10.953Z,73.92
2023-04-14T01:59:10.928Z,73.92
2023-04-14T02:00:10.915Z,74.02
2023-04-14T02:01:10.920Z,73.83
2023-04-14T02:02:10.976Z,73.83
2023-04-14T02:03:10.901Z,74.02
2023-04-14T02:04:10.895Z,74.30
2023-04-14T02:05:10.824Z,74.11
2023-04-14T02:06:10.814Z,74.21
2023-04-14T02:07:10.786Z,74.30
2023-04-14T02:08:10.766Z,74.40
2023-04-14T02:09:10.749Z,74.40
2023-04-14T02:10:10.736Z,74.49
2023-04-14T02:11:10.719Z,74.40
2023-04-14T02:12:10.693Z,74.21
2023-04-14T02:13:10.670Z,74.11
2023-04-14T02:14:10.656Z,74.11
2023-04-14T02:15:10.673Z,74.30
2023-04-14T02:16:10.666Z,74.11
2023-04-14T02:17:10.598Z,74.02
2023-04-14T02:18:10.599Z,73.92
2023-04-14T02:19:10.571Z,74.11
2023-04-14T02:20:10.555Z,74.21
2023-04-14T02:21:10.528Z,74.40
2023-04-14T02:22:10.508Z,74.02
2023-04-14T02:23:10.495Z,74.21
2023-04-14T02:24:10.490Z,74.02
2023-04-14T02:25:10.475Z,73.79
2023-04-14T02:26:10.442Z,74.55
2023-04-14T02:27:10.422Z,74.36
2023-04-14T02:28:10.395Z,74.26
2023-04-14T02:29:10.375Z,74.45
2023-04-14T02:30:10.372Z,74.45
2023-04-14T02:31:10.434Z,74.45
2023-04-14T02:32:10.319Z,74.36
2023-04-14T02:33:10.308Z,74.93
2023-04-14T02:34:10.281Z,75.02
2023-04-14T02:35:10.259Z,74.93
2023-04-14T02:36:10.249Z,75.02
2023-04-14T02:37:10.230Z,75.02
2023-04-14T02:38:10.208Z,74.93
2023-04-14T02:39:10.200Z,74.93
2023-04-14T02:40:10.168Z,74.93
2023-04-14T02:41:10.148Z,74.93
2023-04-14T02:42:10.138Z,74.93
2023-04-14T02:43:10.111Z,74.93
2023-04-14T02:44:10.091Z,75.21
2023-04-14T02:45:10.078Z,74.93
2023-04-14T02:46:10.104Z,75.02
2023-04-14T02:47:10.054Z,75.12
2023-04-14T02:48:10.020Z,74.83
2023-04-14T02:49:11.112Z,75.21
2023-04-14T02:50:09.982Z,75.31
2023-04-14T02:51:09.962Z,75.21
2023-04-14T02:52:09.944Z,75.21
2023-04-14T02:53:09.926Z,75.12
2023-04-14T02:54:09.909Z,75.12
2023-04-14T02:55:09.895Z,74.93
2023-04-14T02:56:09.873Z,75.21
2023-04-14T02:57:09.861Z,75.12
2023-04-14T02:58:09.869Z,75.21
2023-04-14T02:59:09.825Z,75.12
2023-04-14T03:00:09.798Z,75.21
2023-04-14T03:01:09.797Z,75.12
2023-04-14T03:02:09.808Z,74.74
2023-04-14T03:03:10.069Z,74.93
2023-04-14T03:04:09.746Z,74.93
2023-04-14T03:05:09.703Z,75.02
2023-04-14T03:06:09.683Z,74.74
2023-04-14T03:07:09.669Z,74.93
2023-04-14T03:08:09.654Z,74.36
2023-04-14T03:09:09.628Z,74.45
2023-04-14T03:10:09.632Z,74.45
2023-04-14T03:11:09.587Z,74.83
2023-04-14T03:12:09.574Z,74.93
2023-04-14T03:13:09.574Z,74.74
2023-04-14T03:14:09.549Z,74.74
2023-04-14T03:15:09.521Z,74.74
2023-04-14T03:16:09.570Z,74.55
2023-04-14T03:17:09.478Z,75.59
2023-04-14T03:18:09.458Z,75.31
2023-04-14T03:19:09.439Z,75.21
2023-04-14T03:20:09.428Z,75.12
2023-04-14T03:21:09.417Z,75.59
2023-04-14T03:22:09.382Z,75.21
2023-04-14T03:23:09.374Z,75.40
2023-04-14T03:24:09.347Z,75.68
2023-04-14T03:25:09.324Z,75.68
2023-04-14T03:26:09.306Z,75.78
2023-04-14T03:27:09.283Z,75.78
2023-04-14T03:28:09.268Z,75.68
2023-04-14T03:29:09.262Z,75.87
2023-04-14T03:30:09.234Z,75.68
2023-04-14T03:31:09.312Z,75.68
2023-04-14T03:32:09.194Z,76.06
2023-04-14T03:33:09.176Z,75.78
2023-04-14T03:34:09.159Z,75.68
2023-04-14T03:35:09.131Z,75.68
2023-04-14T03:36:09.121Z,75.78
2023-04-14T03:37:09.095Z,75.74
2023-04-14T03:38:09.117Z,75.74
2023-04-14T03:39:09.054Z,75.83
2023-04-14T03:40:09.037Z,75.74
2023-04-14T03:41:09.026Z,75.96
2023-04-14T03:42:09.019Z,75.96
2023-04-14T03:43:08.981Z,75.87
2023-04-14T03:44:08.962Z,75.78
2023-04-14T03:45:08.942Z,76.25
2023-04-14T03:46:08.984Z,75.96
2023-04-14T03:47:08.915Z,75.87
2023-04-14T03:48:08.885Z,76.06
2023-04-14T03:49:08.866Z,75.87
2023-04-14T03:50:08.849Z,76.06
2023-04-14T03:51:09.670Z,75.78
2023-04-14T03:52:08.827Z,76.15
2023-04-14T03:53:08.814Z,75.87
2023-04-14T03:54:08.775Z,75.68
2023-04-14T03:55:08.760Z,75.68
2023-04-14T03:56:08.734Z,75.31
2023-04-14T03:57:08.719Z,75.40
2023-04-14T03:58:08.700Z,75.68
2023-04-14T03:59:10.059Z,75.40
2023-04-14T04:00:08.683Z,75.68
2023-04-14T04:01:08.639Z,75.49
2023-04-14T04:02:08.696Z,75.21
2023-04-14T04:03:08.870Z,75.31
2023-04-14T04:04:08.646Z,75.68
2023-04-14T04:05:08.603Z,75.64
2023-04-14T04:06:08.544Z,75.87
2023-04-14T04:07:08.528Z,75.83
2023-04-14T04:08:08.510Z,75.96
2023-04-14T04:09:08.486Z,75.74
2023-04-14T04:10:08.481Z,75.83
2023-04-14T04:11:08.451Z,75.83
2023-04-14T04:12:08.432Z,75.83
2023-04-14T04:13:08.407Z,75.93
2023-04-14T04:14:08.419Z,75.83
2023-04-14T04:15:08.403Z,75.83
2023-04-14T04:16:08.377Z,75.83
2023-04-14T04:17:08.349Z,75.93
2023-04-14T04:18:08.360Z,75.55
2023-04-14T04:19:08.296Z,75.74
2023-04-14T04:20:08.286Z,75.83
2023-04-14T04:21:08.262Z,76.31
2023-04-14T04:22:08.243Z,76.40
2023-04-14T04:23:08.228Z,76.40
2023-04-14T04:24:08.200Z,76.31
2023-04-14T04:25:08.184Z,76.40
2023-04-14T04:26:08.174Z,76.31
2023-04-14T04:27:14.372Z,76.12
2023-04-14T04:28:08.127Z,76.21
2023-04-14T04:29:08.114Z,76.12
2023-04-14T04:30:08.089Z,76.12
2023-04-14T04:31:08.113Z,76.12
2023-04-14T04:32:08.111Z,76.21
2023-04-14T04:33:08.073Z,76.31
2023-04-14T04:34:08.013Z,76.59
2023-04-14T04:35:08.011Z,76.21
2023-04-14T04:36:07.974Z,76.40
2023-04-14T04:37:07.961Z,76.59
2023-04-14T04:38:07.929Z,76.59
2023-04-14T04:39:07.916Z,76.50
2023-04-14T04:40:07.891Z,76.50
2023-04-14T04:41:07.879Z,76.50
2023-04-14T04:42:07.858Z,76.68
2023-04-14T04:43:07.841Z,76.50
2023-04-14T04:44:07.819Z,75.83
2023-04-14T04:45:07.796Z,76.31
2023-04-14T04:46:07.823Z,76.31
2023-04-14T04:47:07.754Z,76.31
2023-04-14T04:48:07.822Z,76.31
2023-04-14T04:49:07.728Z,76.40
2023-04-14T04:50:07.710Z,76.59
2023-04-14T04:51:07.683Z,76.59
2023-04-14T04:52:07.668Z,76.59
2023-04-14T04:53:07.644Z,76.50
2023-04-14T04:54:07.628Z,76.59
2023-04-14T04:55:07.611Z,76.31
2023-04-14T04:56:07.629Z,76.02
2023-04-14T04:57:07.562Z,75.93
2023-04-14T04:58:07.557Z,76.31
2023-04-14T04:59:07.524Z,76.50
2023-04-14T05:00:07.514Z,75.93
2023-04-14T05:01:07.517Z,75.93
2023-04-14T05:02:07.531Z,76.31
2023-04-14T05:03:07.543Z,76.12
2023-04-14T05:04:07.468Z,76.21
2023-04-14T05:05:07.417Z,76.21
2023-04-14T05:06:07.411Z,76.21
2023-04-14T05:07:07.379Z,76.02
2023-04-14T05:08:07.360Z,76.31
2023-04-14T05:09:07.368Z,76.40
2023-04-14T05:10:07.327Z,76.25
2023-04-14T05:11:07.296Z,76.12
2023-04-14T05:12:07.278Z,76.34
2023-04-14T05:13:07.282Z,76.34
2023-04-14T05:14:07.242Z,76.34
2023-04-14T05:15:07.231Z,76.25
2023-04-14T05:16:07.258Z,76.06
2023-04-14T05:17:07.190Z,76.34
2023-04-14T05:18:07.315Z,76.15
2023-04-14T05:19:07.145Z,76.06
2023-04-14T05:20:07.128Z,76.34
2023-04-14T05:21:07.114Z,76.34
2023-04-14T05:22:07.091Z,76.34
2023-04-14T05:23:07.074Z,76.34
2023-04-14T05:24:07.049Z,76.34
2023-04-14T05:25:07.038Z,76.06
2023-04-14T05:26:22.415Z,76.06
2023-04-14T05:27:14.317Z,76.15
2023-04-14T05:28:06.984Z,76.15
2023-04-14T05:29:06.953Z,76.06
2023-04-14T05:30:06.994Z,76.67
2023-04-14T05:31:06.975Z,76.48
2023-04-14T05:32:06.915Z,76.38
2023-04-14T05:33:06.900Z,76.38
2023-04-14T05:34:06.909Z,76.19
2023-04-14T05:35:06.847Z,76.48
2023-04-14T05:36:06.825Z,76.38
2023-04-14T05:37:06.842Z,76.48
2023-04-14T05:38:06.792Z,76.48
2023-04-14T05:39:06.770Z,76.48
2023-04-14T05:40:06.749Z,76.38
2023-04-14T05:41:06.730Z,76.00
2023-04-14T05:42:06.717Z,75.72
2023-04-14T05:43:06.699Z,76.00
2023-04-14T05:44:06.687Z,75.76
2023-04-14T05:45:06.663Z,76.00
2023-04-14T05:46:06.667Z,76.04
2023-04-14T05:47:06.654Z,75.95
2023-04-14T05:48:06.618Z,76.04
2023-04-14T05:49:06.614Z,75.76
2023-04-14T05:50:06.569Z,75.85
2023-04-14T05:51:06.540Z,75.76
2023-04-14T05:52:06.526Z,75.85
2023-04-14T05:53:06.503Z,75.98
2023-04-14T05:54:06.487Z,75.89
2023-04-14T05:55:06.476Z,75.79
2023-04-14T05:56:06.449Z,75.79
2023-04-14T05:57:06.429Z,75.89
2023-04-14T05:58:06.416Z,76.08
2023-04-14T05:59:06.395Z,76.08
2023-04-14T06:00:06.381Z,76.46
2023-04-14T06:01:06.352Z,76.08
2023-04-14T06:02:06.391Z,75.98
2023-04-14T06:03:06.592Z,76.03
2023-04-14T06:04:07.174Z,76.03
2023-04-14T06:05:06.342Z,76.03
2023-04-14T06:06:06.278Z,76.03
2023-04-14T06:07:06.263Z,76.03
2023-04-14T06:08:06.226Z,75.93
2023-04-14T06:09:06.215Z,75.93
2023-04-14T06:10:06.192Z,75.78
2023-04-14T06:11:06.182Z,76.06
2023-04-14T06:12:06.158Z,76.06
2023-04-14T06:13:06.151Z,76.06
2023-04-14T06:14:06.120Z,76.34
2023-04-14T06:15:06.108Z,76.15
2023-04-14T06:16:06.164Z,76.06
2023-04-14T06:17:06.072Z,76.25
2023-04-14T06:18:06.091Z,76.39
2023-04-14T06:19:06.035Z,76.20
2023-04-14T06:20:06.024Z,75.91
2023-04-14T06:21:06.000Z,75.57
2023-04-14T06:22:05.990Z,75.38
2023-04-14T06:23:05.967Z,75.28
2023-04-14T06:24:05.945Z,75.00
2023-04-14T06:25:05.930Z,75.04
2023-04-14T06:26:05.928Z,74.56
2023-04-14T06:27:05.902Z,74.47
2023-04-14T06:28:05.878Z,74.18
2023-04-14T06:29:05.860Z,74.18
2023-04-14T06:30:05.844Z,74.47
2023-04-14T06:31:05.826Z,74.18
2023-04-14T06:32:05.861Z,74.37
2023-04-14T06:33:05.836Z,74.18
2023-04-14T06:34:05.803Z,73.99
2023-04-14T06:35:05.764Z,74.18
2023-04-14T06:36:05.749Z,74.27
2023-04-14T06:37:05.731Z,74.18
2023-04-14T06:38:05.706Z,74.03
2023-04-14T06:39:05.691Z,74.03
2023-04-14T06:40:05.689Z,74.22
2023-04-14T06:41:05.664Z,74.12
2023-04-14T06:42:05.654Z,74.41
2023-04-14T06:43:05.628Z,74.41
2023-04-14T06:44:05.648Z,74.88
2023-04-14T06:45:05.598Z,74.12
2023-04-14T06:46:05.695Z,74.31
2023-04-14T06:47:05.564Z,74.69
2023-04-14T06:48:05.614Z,74.22
2023-04-14T06:49:05.532Z,73.93
2023-04-14T06:50:05.544Z,73.97
2023-04-14T06:51:05.497Z,74.26
2023-04-14T06:52:05.478Z,74.16
2023-04-14T06:53:05.480Z,74.44
2023-04-14T06:54:05.458Z,73.97
2023-04-14T06:55:05.445Z,73.97
2023-04-14T06:56:05.430Z,74.16
2023-04-14T06:57:05.412Z,73.97
2023-04-14T06:58:05.453Z,74.01
2023-04-14T06:59:05.370Z,74.20
2023-04-14T07:00:05.349Z,74.10
2023-04-14T07:01:05.346Z,74.10
2023-04-14T07:02:05.352Z,73.76
2023-04-14T07:03:05.410Z,73.85
2023-04-14T07:04:07.586Z,73.38
2023-04-14T07:05:05.484Z,73.76
2023-04-14T07:06:05.278Z,73.38
2023-04-14T07:07:05.249Z,73.76
2023-04-14T07:08:05.233Z,73.85
2023-04-14T07:09:05.220Z,73.38
2023-04-14T07:10:05.235Z,73.32
2023-04-14T07:11:05.197Z,73.32
2023-04-14T07:12:05.168Z,73.07
2023-04-14T07:13:05.147Z,72.41
2023-04-14T07:14:05.136Z,72.78
2023-04-14T07:15:05.118Z,72.60
2023-04-14T07:16:05.117Z,72.41
2023-04-14T07:17:05.089Z,73.17
2023-04-14T07:18:05.156Z,72.60
2023-04-14T07:19:05.075Z,72.82
2023-04-14T07:20:05.080Z,72.63
2023-04-14T07:21:05.032Z,72.34
2023-04-14T07:22:05.009Z,72.44
2023-04-14T07:23:05.004Z,72.09
2023-04-14T07:24:04.989Z,71.62
2023-04-14T07:25:04.977Z,71.91
2023-04-14T07:26:04.958Z,72.00
2023-04-14T07:27:04.941Z,71.84
2023-04-14T07:28:04.952Z,71.46
2023-04-14T07:29:04.935Z,71.27
2023-04-14T07:30:04.912Z,71.46
2023-04-14T07:31:04.985Z,71.66
2023-04-14T07:32:04.867Z,71.46
2023-04-14T07:33:05.037Z,71.37
2023-04-14T07:34:04.839Z,71.27
2023-04-14T07:35:04.892Z,71.31
2023-04-14T07:36:04.918Z,71.15
2023-04-14T07:37:04.810Z,71.19
2023-04-14T07:38:04.787Z,71.16
2023-04-14T07:39:04.786Z,68.95
2023-04-14T07:40:04.773Z,63.67
2023-04-14T07:41:04.759Z,58.19
2023-04-14T07:42:04.736Z,53.53
2023-04-14T07:43:04.723Z,49.99
2023-04-14T07:44:04.719Z,47.30
2023-04-14T07:45:04.707Z,44.95
2023-04-14T07:46:04.756Z,43.55
2023-04-14T07:47:04.691Z,42.56
2023-04-14T07:48:04.700Z,42.41
2023-04-14T07:49:04.661Z,41.51
2023-04-14T07:50:04.656Z,40.58
2023-04-14T07:51:04.635Z,40.33
2023-04-14T07:52:04.630Z,39.78
2023-04-14T07:53:04.617Z,39.48
2023-04-14T07:54:04.607Z,39.79
2023-04-14T07:55:04.603Z,39.46
2023-04-14T07:56:04.600Z,39.56
2023-04-14T07:57:04.583Z,39.28
2023-04-14T07:58:04.579Z,39.18
2023-04-14T07:59:04.567Z,39.62
2023-04-14T08:00:04.670Z,38.86
2023-04-14T08:01:04.556Z,37.73
2023-04-14T08:02:04.675Z,37.26
2023-04-14T08:03:04.737Z,36.90
2023-04-14T08:04:04.739Z,36.33
2023-04-14T08:05:04.653Z,35.38
2023-04-14T08:06:04.517Z,35.10
2023-04-14T08:07:04.526Z,35.21
2023-04-14T08:08:04.520Z,34.33
2023-04-14T08:09:04.503Z,34.23
2023-04-14T08:10:04.499Z,34.13
2023-04-14T08:11:04.492Z,33.73
2023-04-14T08:12:04.489Z,34.05
2023-04-14T08:13:04.489Z,33.67
2023-04-14T08:14:04.480Z,33.68
2023-04-14T08:15:04.479Z,32.90
2023-04-14T08:16:04.571Z,33.28
2023-04-14T08:17:04.462Z,33.92
2023-04-14T08:18:04.495Z,34.22
2023-04-14T08:19:04.900Z,33.95
2023-04-14T08:20:04.451Z,33.26
2023-04-14T08:21:04.445Z,33.17
2023-04-14T08:22:04.440Z,33.75
2023-04-14T08:23:04.438Z,33.15
2023-04-14T08:24:04.428Z,33.18
2023-04-14T08:25:04.427Z,32.52
2023-04-14T08:26:04.441Z,31.76
2023-04-14T08:27:04.421Z,31.48
2023-04-14T08:28:04.415Z,31.28
2023-04-14T08:29:04.464Z,31.38
2023-04-14T08:30:04.418Z,30.99
2023-04-14T08:31:04.411Z,30.62
2023-04-14T08:32:04.456Z,30.04
2023-04-14T08:33:04.466Z,29.65
2023-04-14T08:34:04.407Z,30.49
2023-04-14T08:35:38.485Z,30.96
2023-04-14T08:36:04.388Z,30.88
2023-04-14T08:37:04.397Z,30.51
2023-04-14T08:38:04.380Z,29.84
2023-04-14T08:39:04.381Z,29.58
2023-04-14T08:40:04.384Z,28.99
2023-04-14T08:41:04.392Z,28.41
2023-04-14T08:42:04.372Z,28.22
2023-04-14T08:43:04.370Z,27.83
2023-04-14T08:44:04.368Z,27.81
2023-04-14T08:45:04.367Z,27.74
2023-04-14T08:46:04.432Z,27.91
2023-04-14T08:47:04.362Z,27.91
2023-04-14T08:48:04.480Z,28.11
2023-04-14T08:49:04.359Z,27.83
2023-04-14T08:50:04.371Z,27.62
2023-04-14T08:51:04.365Z,27.34
2023-04-14T08:52:04.354Z,27.73
2023-04-14T08:53:04.360Z,27.15
2023-04-14T08:54:04.529Z,26.67
2023-04-14T08:55:04.364Z,26.09
2023-04-14T08:56:04.353Z,25.81
2023-04-14T08:57:04.354Z,25.31
2023-04-14T08:58:04.372Z,24.92
2023-04-14T08:59:04.355Z,24.92
2023-04-14T09:00:04.341Z,25.21
2023-04-14T09:01:04.373Z,25.40
2023-04-14T09:02:04.457Z,25.38
2023-04-14T09:03:04.598Z,25.49
2023-04-14T09:04:04.713Z,25.58
2023-04-14T09:05:04.339Z,25.59
2023-04-14T09:06:04.350Z,25.11
2023-04-14T09:07:04.337Z,24.82
2023-04-14T09:08:04.349Z,24.82
2023-04-14T09:09:04.341Z,24.43
2023-04-14T09:10:04.341Z,24.72
2023-04-14T09:11:04.345Z,24.32
2023-04-14T09:12:04.353Z,24.52
2023-04-14T09:13:04.337Z,24.22
2023-04-14T09:14:04.661Z,24.10
2023-04-14T09:15:04.332Z,24.76
2023-04-14T09:16:04.358Z,25.33
2023-04-14T09:17:04.428Z,25.25
2023-04-14T09:18:04.397Z,24.98
2023-04-14T09:19:07.104Z,24.62
2023-04-14T09:20:34.645Z,23.62
2023-04-14T09:21:51.061Z,23.71
2023-04-14T09:22:04.328Z,23.81
2023-04-14T09:23:04.332Z,23.02
2023-04-14T09:24:04.328Z,22.77
2023-04-14T09:25:04.333Z,22.37
2023-04-14T09:26:04.330Z,22.18
2023-04-14T09:27:04.338Z,22.16
2023-04-14T09:28:04.336Z,22.54
2023-04-14T09:29:04.451Z,22.60
2023-04-14T09:30:04.332Z,23.07
2023-04-14T09:31:04.377Z,23.49
2023-04-14T09:32:04.329Z,22.90
2023-04-14T09:33:04.373Z,22.71
2023-04-14T09:34:04.580Z,22.64
2023-04-14T09:35:04.325Z,21.47
2023-04-14T09:36:04.318Z,21.15
2023-04-14T09:37:04.323Z,21.65
2023-04-14T09:38:04.322Z,21.65
2023-04-14T09:39:04.320Z,21.63
2023-04-14T09:40:04.320Z,22.23
2023-04-14T09:41:04.326Z,22.52
2023-04-14T09:42:04.323Z,21.85
2023-04-14T09:43:04.346Z,21.37
2023-04-14T09:44:04.354Z,21.02
2023-04-14T09:45:04.359Z,20.50
2023-04-14T09:46:04.416Z,21.49
2023-04-14T09:47:04.327Z,23.88
2023-04-14T09:48:04.417Z,26.40
2023-04-14T09:49:04.326Z,28.75
2023-04-14T09:50:04.344Z,30.88
2023-04-14T09:51:04.327Z,33.20
2023-04-14T09:52:04.343Z,34.53
2023-04-14T09:53:04.348Z,31.53
2023-04-14T09:54:05.091Z,27.95
2023-04-14T09:55:04.331Z,24.80
2023-04-14T09:56:04.329Z,22.42
2023-04-14T09:57:04.324Z,21.29
2023-04-14T09:58:04.344Z,20.73
2023-04-14T09:59:04.561Z,20.45
2023-04-14T10:00:04.324Z,20.06
2023-04-14T10:01:04.326Z,19.78
2023-04-14T10:02:04.417Z,19.87
2023-04-14T10:03:04.464Z,19.81
2023-04-14T10:04:04.350Z,18.95
2023-04-14T10:05:04.337Z,18.83
2023-04-14T10:06:04.325Z,18.63
2023-04-14T10:07:04.328Z,18.47
2023-04-14T10:08:04.337Z,17.79
2023-04-14T10:09:04.616Z,17.70
2023-04-14T10:10:04.340Z,17.70
2023-04-14T10:11:04.331Z,17.59
2023-04-14T10:12:04.333Z,17.70
2023-04-14T10:13:04.333Z,17.87
2023-04-14T10:14:04.359Z,17.76
2023-04-14T10:15:04.349Z,17.98
2023-04-14T10:16:04.407Z,17.71
2023-04-14T10:17:04.345Z,16.70
2023-04-14T10:18:04.398Z,17.23
2023-04-14T10:19:04.551Z,17.02
2023-04-14T10:20:04.356Z,17.12
2023-04-14T10:21:04.358Z,16.93
2023-04-14T10:22:04.376Z,16.02
2023-04-14T10:23:04.397Z,16.03
2023-04-14T10:24:04.361Z,15.84
2023-04-14T10:25:04.388Z,15.92
2023-04-14T10:26:04.370Z,16.03
2023-04-14T11:38:21.793Z,10.58
2023-04-14T11:39:21.772Z,10.18
2023-04-14T11:41:26.409Z,9.97
2023-04-14T11:42:26.412Z,10.19
2023-04-14T16:32:43.948Z,35.08
2023-04-14T16:33:43.606Z,35.28
2023-04-14T16:34:43.594Z,35.47
2023-04-14T16:35:43.593Z,35.57
2023-04-14T16:36:43.573Z,35.64
2023-04-14T16:37:43.561Z,35.55
2023-04-14T16:38:43.568Z,35.83
2023-04-14T16:39:43.539Z,35.74
2023-04-14T16:40:43.529Z,35.83
2023-04-14T16:41:43.521Z,35.83
2023-04-14T16:42:43.502Z,36.12
2023-04-14T16:43:43.498Z,36.02
2023-04-14T16:44:43.480Z,36.10
2023-04-14T16:45:43.462Z,36.19
2023-04-14T16:46:43.472Z,36.39
2023-04-14T16:47:43.467Z,36.29
2023-04-14T16:48:43.431Z,36.39
2023-04-14T16:49:43.420Z,36.48
2023-04-14T16:50:43.407Z,36.58
2023-04-14T16:51:43.411Z,36.58
2023-04-14T16:52:43.377Z,36.48
2023-04-14T16:53:43.354Z,36.27
2023-04-14T16:54:43.359Z,36.27
2023-04-14T16:55:43.341Z,36.37
2023-04-14T16:56:43.316Z,36.46
2023-04-14T16:57:43.302Z,36.56
2023-04-14T16:58:43.297Z,36.56
2023-04-14T16:59:43.304Z,36.66
2023-04-14T17:00:43.256Z,36.85
2023-04-14T17:01:43.276Z,36.94
2023-04-14T17:02:43.342Z,37.04
2023-04-14T17:03:43.513Z,37.23
2023-04-14T17:04:43.350Z,37.32
2023-04-14T17:05:43.177Z,37.23
2023-04-14T17:06:43.170Z,37.23
2023-04-14T17:07:43.150Z,37.02
2023-04-14T17:08:43.145Z,36.92
2023-04-14T17:09:43.156Z,36.94
2023-04-14T17:10:43.113Z,36.85
2023-04-14T17:11:43.106Z,36.92
2023-04-14T17:12:43.121Z,36.73
2023-04-14T17:13:43.072Z,37.12
2023-04-14T17:14:43.083Z,37.21
2023-04-14T17:15:43.044Z,37.40
2023-04-14T17:16:43.116Z,37.12
2023-04-14T17:17:43.093Z,37.68
2023-04-14T17:18:43.003Z,37.97
2023-04-14T17:19:42.995Z,37.95
2023-04-14T17:20:43.002Z,37.76
2023-04-14T17:21:42.964Z,37.76
2023-04-14T17:22:42.953Z,38.24
2023-04-14T17:23:42.939Z,38.05
2023-04-14T17:24:42.926Z,38.24
2023-04-14T17:25:42.910Z,38.05
2023-04-14T17:26:42.903Z,37.95
2023-04-14T17:27:42.904Z,38.05
2023-04-14T17:28:42.872Z,37.86
2023-04-14T17:29:42.857Z,38.05
2023-04-14T17:30:42.842Z,38.43
2023-04-14T17:31:42.842Z,38.43
2023-04-14T17:32:42.838Z,38.22
2023-04-14T17:33:42.808Z,38.70
2023-04-14T17:34:42.792Z,39.08
2023-04-14T17:35:42.780Z,38.79
2023-04-14T17:36:42.768Z,39.36
2023-04-14T17:37:42.754Z,38.89
2023-04-14T17:38:42.761Z,39.17
2023-04-14T17:39:42.726Z,39.27
2023-04-14T17:40:42.738Z,39.56
2023-04-14T17:41:42.698Z,39.36
2023-04-14T17:42:42.688Z,39.56
2023-04-14T17:43:42.671Z,39.73
2023-04-14T17:44:42.662Z,39.73
2023-04-14T17:45:42.692Z,39.73
2023-04-14T17:46:42.632Z,40.01
2023-04-14T17:47:42.644Z,39.82
2023-04-14T17:48:42.603Z,39.92
2023-04-14T17:49:42.592Z,40.11
2023-04-14T20:39:41.361Z,50.74
2023-04-14T20:40:40.956Z,50.83
2023-04-14T20:42:46.179Z,50.74
2023-04-14T20:43:45.494Z,51.12
2023-04-14T20:44:45.479Z,51.40
2023-04-14T20:45:45.494Z,51.31
2023-04-14T20:46:45.441Z,51.21
2023-04-14T20:47:45.469Z,51.31
2023-04-14T20:48:45.453Z,51.50
2023-04-14T20:49:45.672Z,51.21
2023-04-14T20:50:45.379Z,51.31
2023-04-14T20:51:45.374Z,51.31
2023-04-14T20:52:45.340Z,51.21
2023-04-14T20:53:45.328Z,51.21
2023-04-14T20:54:45.311Z,51.21
2023-04-14T20:55:45.299Z,51.31
2023-04-14T20:56:45.272Z,51.21
2023-04-14T20:57:45.263Z,51.31
2023-04-14T20:58:45.243Z,51.47
2023-04-14T20:59:45.228Z,51.57
2023-04-14T21:00:45.210Z,51.37
2023-04-14T21:01:45.276Z,51.18
2023-04-14T21:02:45.211Z,51.57
2023-04-14T21:03:45.313Z,51.37
2023-04-14T21:04:45.146Z,51.47
2023-04-14T21:05:45.146Z,52.04
2023-04-14T21:06:45.110Z,51.85
2023-04-14T21:07:45.096Z,51.66
2023-04-14T21:08:45.080Z,51.57
2023-04-14T21:09:45.060Z,51.95
2023-04-14T21:11:02.153Z,52.23
2023-04-14T21:11:45.030Z,52.33
2023-04-14T21:15:24.812Z,51.95
2023-04-14T21:15:25.522Z,52.04
2023-04-14T21:15:31.078Z,52.14
2023-04-14T21:15:53.677Z,51.95
2023-04-14T21:16:44.982Z,51.95
2023-04-14T21:17:44.951Z,51.85
2023-04-14T21:18:44.967Z,52.23
2023-04-14T21:19:44.896Z,51.95
2023-04-14T21:20:44.877Z,52.04
2023-04-14T21:21:44.859Z,52.23
2023-04-14T21:22:44.850Z,52.04
2023-04-14T21:23:44.827Z,51.95
2023-04-14T21:24:44.809Z,52.04
2023-04-14T21:25:44.793Z,51.95
2023-04-14T21:26:44.785Z,52.04
2023-04-14T21:27:44.759Z,51.95
2023-04-14T21:28:44.743Z,51.95
2023-04-14T21:29:44.738Z,52.04
2023-04-14T21:30:44.723Z,52.04
2023-04-14T21:31:44.713Z,52.14
2023-04-14T21:32:44.712Z,52.42
2023-04-14T21:33:44.663Z,52.42
2023-04-14T21:34:44.639Z,52.80
2023-04-14T21:35:44.638Z,52.70
2023-04-14T21:36:44.608Z,52.61
2023-04-14T21:37:44.589Z,52.61
2023-04-14T21:38:44.607Z,52.70
2023-04-14T21:39:44.697Z,52.80
2023-04-14T21:40:44.541Z,52.70
2023-04-14T21:41:44.522Z,52.51
2023-04-14T21:42:44.520Z,52.70
2023-04-14T21:43:44.489Z,52.98